createdAt,value
2022-11-26T00:00:49.722Z,974.25
2022-11-26T00:01:49.675Z,974.22
2022-11-26T00:02:49.664Z,974.28
2022-11-26T00:03:49.543Z,974.30
2022-11-26T00:04:49.476Z,974.32
2022-11-26T00:05:49.438Z,974.32
2022-11-26T00:06:49.360Z,974.35
2022-11-26T00:07:49.440Z,974.35
2022-11-26T00:08:49.254Z,974.37
2022-11-26T00:09:49.212Z,974.37
2022-11-26T00:10:49.136Z,974.41
2022-11-26T00:11:49.087Z,974.44
2022-11-26T00:12:49.036Z,974.44
2022-11-26T00:13:48.963Z,974.46
2022-11-26T00:14:48.917Z,974.43
2022-11-26T00:15:48.853Z,974.44
2022-11-26T00:16:48.899Z,974.42
2022-11-26T00:17:48.751Z,974.45
2022-11-26T00:18:48.686Z,974.49
2022-11-26T00:19:48.624Z,974.46
2022-11-26T00:20:48.574Z,974.48
2022-11-26T00:21:48.527Z,974.49
2022-11-26T00:22:48.461Z,974.47
2022-11-26T00:23:48.404Z,974.43
2022-11-26T00:24:48.354Z,974.47
2022-11-26T00:25:48.291Z,974.43
2022-11-26T00:26:48.229Z,974.48
2022-11-26T00:27:48.181Z,974.48
2022-11-26T00:28:48.118Z,974.51
2022-11-26T00:29:48.073Z,974.49
2022-11-26T00:30:48.002Z,974.48
2022-11-26T00:31:48.036Z,974.52
2022-11-26T00:32:47.903Z,974.53
2022-11-26T00:33:47.831Z,974.52
2022-11-26T00:34:47.776Z,974.51
2022-11-26T00:35:47.720Z,974.54
2022-11-26T00:36:47.700Z,974.53
2022-11-26T00:37:47.605Z,974.55
2022-11-26T00:38:47.548Z,974.56
2022-11-26T00:39:47.494Z,974.54
2022-11-26T00:40:47.470Z,974.58
2022-11-26T00:41:47.399Z,974.58
2022-11-26T00:42:47.325Z,974.60
2022-11-26T00:43:47.269Z,974.60
2022-11-26T00:44:47.212Z,974.62
2022-11-26T00:45:47.259Z,974.59
2022-11-26T00:46:47.116Z,974.61
2022-11-26T00:47:47.072Z,974.61
2022-11-26T00:48:46.988Z,974.64
2022-11-26T00:49:46.943Z,974.58
2022-11-26T00:50:46.870Z,974.63
2022-11-26T00:51:46.826Z,974.65
2022-11-26T00:52:46.774Z,974.64
2022-11-26T00:53:46.708Z,974.63
2022-11-26T00:54:46.644Z,974.70
2022-11-26T00:55:46.588Z,974.70
2022-11-26T00:56:46.532Z,974.74
2022-11-26T00:57:46.517Z,974.73
2022-11-26T00:58:46.422Z,974.73
2022-11-26T00:59:46.368Z,974.75
2022-11-26T01:00:46.365Z,974.73
2022-11-26T01:01:46.319Z,974.77
2022-11-26T01:02:46.226Z,974.79
2022-11-26T01:03:46.160Z,974.81
2022-11-26T01:04:46.088Z,974.88
2022-11-26T01:05:46.028Z,974.89
2022-11-26T01:06:45.988Z,974.92
2022-11-26T01:07:45.990Z,974.96
2022-11-26T01:08:45.866Z,974.94
2022-11-26T01:09:45.800Z,974.97
2022-11-26T01:10:45.752Z,974.96
2022-11-26T01:11:47.909Z,974.99
2022-11-26T01:12:45.632Z,974.97
2022-11-26T01:13:45.798Z,975.00
2022-11-26T01:14:45.512Z,974.95
2022-11-26T01:15:45.473Z,974.99
2022-11-26T01:16:45.432Z,975.01
2022-11-26T01:17:45.351Z,974.99
2022-11-26T01:18:45.303Z,974.99
2022-11-26T01:19:45.230Z,975.08
2022-11-26T01:20:45.175Z,975.07
2022-11-26T01:21:45.118Z,975.08
2022-11-26T01:22:45.066Z,975.08
2022-11-26T01:23:45.021Z,975.08
2022-11-26T01:24:44.948Z,975.13
2022-11-26T01:25:44.916Z,975.11
2022-11-26T01:26:44.848Z,975.13
2022-11-26T01:27:44.779Z,975.14
2022-11-26T01:28:44.724Z,975.16
2022-11-26T01:29:44.680Z,975.14
2022-11-26T01:30:44.609Z,975.17
2022-11-26T01:31:44.611Z,975.15
2022-11-26T01:32:44.498Z,975.14
2022-11-26T01:33:44.444Z,975.17
2022-11-26T01:34:44.397Z,975.15
2022-11-26T01:35:44.329Z,975.17
2022-11-26T01:36:44.275Z,975.17
2022-11-26T01:37:44.213Z,975.17
2022-11-26T01:38:44.158Z,975.20
2022-11-26T01:39:44.120Z,975.25
2022-11-26T01:40:44.043Z,975.25
2022-11-26T01:41:43.987Z,975.23
2022-11-26T01:42:43.942Z,975.23
2022-11-26T01:43:43.884Z,975.19
2022-11-26T01:44:43.832Z,975.21
2022-11-26T01:45:43.821Z,975.23
2022-11-26T01:46:43.709Z,975.23
2022-11-26T01:47:43.662Z,975.22
2022-11-26T01:48:43.599Z,975.22
2022-11-26T01:49:43.552Z,975.21
2022-11-26T01:50:43.485Z,975.26
2022-11-26T01:51:43.430Z,975.27
2022-11-26T01:52:43.384Z,975.28
2022-11-26T01:53:43.309Z,975.28
2022-11-26T01:54:43.255Z,975.30
2022-11-26T01:55:43.200Z,975.32
2022-11-26T01:56:43.150Z,975.29
2022-11-26T01:57:43.101Z,975.33
2022-11-26T01:58:43.030Z,975.26
2022-11-26T01:59:42.973Z,975.26
2022-11-26T02:00:42.974Z,975.28
2022-11-26T02:01:42.933Z,975.28
2022-11-26T02:02:42.859Z,975.29
2022-11-26T02:03:42.744Z,975.32
2022-11-26T02:04:42.685Z,975.30
2022-11-26T02:05:42.635Z,975.29
2022-11-26T02:06:42.569Z,975.32
2022-11-26T02:07:42.608Z,975.33
2022-11-26T02:08:42.456Z,975.35
2022-11-26T02:09:42.399Z,975.37
2022-11-26T02:10:42.342Z,975.30
2022-11-26T02:11:42.294Z,975.33
2022-11-26T02:12:42.249Z,975.38
2022-11-26T02:13:42.183Z,975.35
2022-11-26T02:14:42.120Z,975.35
2022-11-26T02:15:42.061Z,975.36
2022-11-26T02:16:42.042Z,975.37
2022-11-26T02:17:41.960Z,975.36
2022-11-26T02:18:41.894Z,975.33
2022-11-26T02:19:41.854Z,975.37
2022-11-26T02:20:41.779Z,975.39
2022-11-26T02:21:41.725Z,975.35
2022-11-26T02:22:41.662Z,975.41
2022-11-26T02:23:41.606Z,975.42
2022-11-26T02:24:41.563Z,975.46
2022-11-26T02:25:41.505Z,975.43
2022-11-26T02:26:41.435Z,975.51
2022-11-26T02:27:41.379Z,975.53
2022-11-26T02:28:41.333Z,975.54
2022-11-26T02:29:41.287Z,975.60
2022-11-26T02:30:41.211Z,975.59
2022-11-26T02:31:41.192Z,975.62
2022-11-26T02:32:41.106Z,975.60
2022-11-26T02:33:41.043Z,975.59
2022-11-26T02:34:41.393Z,975.61
2022-11-26T02:35:40.934Z,975.62
2022-11-26T02:36:40.870Z,975.69
2022-11-26T02:37:40.819Z,975.68
2022-11-26T02:38:40.771Z,975.75
2022-11-26T02:39:40.702Z,975.72
2022-11-26T02:40:40.651Z,975.73
2022-11-26T02:41:40.586Z,975.77
2022-11-26T02:42:40.532Z,975.75
2022-11-26T02:43:40.486Z,975.78
2022-11-26T02:44:40.685Z,975.78
2022-11-26T02:45:40.413Z,975.80
2022-11-26T02:46:40.312Z,975.85
2022-11-26T02:47:40.246Z,975.83
2022-11-26T02:48:40.188Z,975.89
2022-11-26T02:49:40.151Z,975.88
2022-11-26T02:50:40.075Z,975.87
2022-11-26T02:51:40.038Z,975.93
2022-11-26T02:52:39.960Z,975.91
2022-11-26T02:53:39.906Z,975.90
2022-11-26T02:54:40.190Z,975.91
2022-11-26T02:55:39.805Z,975.93
2022-11-26T02:56:39.759Z,975.96
2022-11-26T02:57:39.685Z,975.97
2022-11-26T02:58:39.628Z,976.02
2022-11-26T02:59:39.563Z,976.04
2022-11-26T03:00:39.539Z,976.11
2022-11-26T03:01:39.553Z,976.08
2022-11-26T03:02:39.399Z,976.11
2022-11-26T03:03:39.424Z,976.12
2022-11-26T03:04:39.580Z,976.09
2022-11-26T03:05:39.264Z,976.10
2022-11-26T03:06:39.195Z,976.15
2022-11-26T03:07:39.144Z,976.17
2022-11-26T03:08:39.056Z,976.15
2022-11-26T03:09:38.998Z,976.16
2022-11-26T03:10:38.941Z,976.20
2022-11-26T03:11:38.901Z,976.19
2022-11-26T03:12:38.840Z,976.16
2022-11-26T03:13:38.794Z,976.19
2022-11-26T03:14:39.013Z,976.21
2022-11-26T03:15:38.663Z,976.21
2022-11-26T03:16:38.658Z,976.22
2022-11-26T03:17:38.565Z,976.25
2022-11-26T03:18:38.489Z,976.24
2022-11-26T03:19:38.431Z,976.26
2022-11-26T03:20:38.375Z,976.25
2022-11-26T03:21:38.317Z,976.25
2022-11-26T03:22:38.272Z,976.25
2022-11-26T03:23:38.208Z,976.27
2022-11-26T03:24:38.395Z,976.30
2022-11-26T03:25:38.101Z,976.25
2022-11-26T03:26:38.141Z,976.27
2022-11-26T03:27:37.978Z,976.24
2022-11-26T03:28:37.922Z,976.25
2022-11-26T03:29:37.874Z,976.27
2022-11-26T03:30:37.808Z,976.25
2022-11-26T03:31:37.791Z,976.27
2022-11-26T03:32:37.716Z,976.26
2022-11-26T03:33:37.638Z,976.25
2022-11-26T03:34:37.837Z,976.27
2022-11-26T03:35:37.530Z,976.24
2022-11-26T03:36:37.471Z,976.25
2022-11-26T03:37:37.415Z,976.29
2022-11-26T03:38:37.372Z,976.28
2022-11-26T03:39:37.302Z,976.31
2022-11-26T03:40:37.240Z,976.27
2022-11-26T03:41:37.183Z,976.26
2022-11-26T03:42:37.125Z,976.27
2022-11-26T03:43:37.085Z,976.29
2022-11-26T03:44:37.270Z,976.26
2022-11-26T03:45:37.020Z,976.32
2022-11-26T03:46:36.905Z,976.27
2022-11-26T03:47:36.851Z,976.27
2022-11-26T03:48:36.811Z,976.33
2022-11-26T03:49:36.754Z,976.31
2022-11-26T03:50:36.680Z,976.38
2022-11-26T03:51:36.642Z,976.36
2022-11-26T03:52:36.564Z,976.36
2022-11-26T03:53:36.514Z,976.38
2022-11-26T03:54:36.699Z,976.36
2022-11-26T03:55:36.393Z,976.37
2022-11-26T03:56:36.338Z,976.45
2022-11-26T03:57:36.307Z,976.47
2022-11-26T03:58:36.228Z,976.43
2022-11-26T03:59:36.171Z,976.47
2022-11-26T04:00:36.109Z,976.42
2022-11-26T04:01:36.124Z,976.45
2022-11-26T04:02:36.075Z,976.47
2022-11-26T04:03:35.954Z,976.51
2022-11-26T04:04:36.260Z,976.50
2022-11-26T04:05:35.821Z,976.53
2022-11-26T04:06:35.764Z,976.52
2022-11-26T04:07:35.752Z,976.50
2022-11-26T04:08:35.651Z,976.55
2022-11-26T04:09:35.606Z,976.55
2022-11-26T04:10:35.555Z,976.58
2022-11-26T04:11:35.479Z,976.56
2022-11-26T04:12:35.427Z,976.55
2022-11-26T04:13:35.369Z,976.59
2022-11-26T04:14:35.489Z,976.57
2022-11-26T04:15:35.257Z,976.59
2022-11-26T04:16:35.251Z,976.61
2022-11-26T04:17:35.157Z,976.60
2022-11-26T04:18:35.088Z,976.65
2022-11-26T04:19:35.024Z,976.61
2022-11-26T04:20:34.991Z,976.67
2022-11-26T04:21:34.920Z,976.66
2022-11-26T04:22:34.855Z,976.70
2022-11-26T04:23:34.800Z,976.72
2022-11-26T04:24:34.757Z,976.75
2022-11-26T04:25:34.689Z,976.74
2022-11-26T04:26:43.842Z,976.77
2022-11-26T04:27:34.570Z,976.73
2022-11-26T04:28:34.520Z,976.70
2022-11-26T04:29:34.474Z,976.70
2022-11-26T04:30:34.398Z,976.74
2022-11-26T04:31:34.433Z,976.73
2022-11-26T04:32:34.290Z,976.75
2022-11-26T04:33:34.242Z,976.72
2022-11-26T04:34:34.169Z,976.73
2022-11-26T04:35:34.113Z,976.78
2022-11-26T04:36:34.071Z,976.77
2022-11-26T04:37:34.005Z,976.73
2022-11-26T04:38:33.942Z,976.77
2022-11-26T04:39:33.900Z,976.76
2022-11-26T04:40:33.829Z,976.75
2022-11-26T04:41:33.771Z,976.76
2022-11-26T04:42:33.720Z,976.80
2022-11-26T04:43:33.674Z,976.79
2022-11-26T04:44:33.601Z,976.78
2022-11-26T04:45:33.582Z,976.82
2022-11-26T04:46:33.490Z,976.83
2022-11-26T04:47:33.430Z,976.84
2022-11-26T04:48:33.388Z,976.85
2022-11-26T04:49:33.329Z,976.85
2022-11-26T04:50:33.257Z,976.89
2022-11-26T04:51:33.206Z,976.86
2022-11-26T04:52:33.161Z,976.87
2022-11-26T04:53:33.087Z,976.86
2022-11-26T04:54:33.052Z,976.84
2022-11-26T04:55:32.976Z,976.91
2022-11-26T04:56:32.924Z,976.84
2022-11-26T04:57:32.859Z,976.85
2022-11-26T04:58:32.807Z,976.82
2022-11-26T04:59:32.764Z,976.85
2022-11-26T05:00:32.686Z,976.86
2022-11-26T05:01:32.695Z,976.85
2022-11-26T05:02:32.623Z,976.90
2022-11-26T05:03:32.519Z,976.92
2022-11-26T05:04:32.479Z,976.91
2022-11-26T05:05:32.401Z,976.92
2022-11-26T05:06:32.352Z,976.92
2022-11-26T05:07:32.348Z,976.92
2022-11-26T05:08:32.253Z,976.95
2022-11-26T05:09:32.179Z,976.95
2022-11-26T05:10:32.114Z,976.95
2022-11-26T05:11:32.083Z,976.95
2022-11-26T05:12:32.001Z,977.00
2022-11-26T05:13:31.964Z,976.96
2022-11-26T05:14:31.888Z,976.98
2022-11-26T05:15:31.832Z,976.99
2022-11-26T05:16:31.884Z,977.02
2022-11-26T05:17:31.720Z,977.03
2022-11-26T05:18:31.659Z,977.05
2022-11-26T05:19:31.608Z,977.08
2022-11-26T05:20:31.546Z,977.11
2022-11-26T05:21:31.539Z,977.14
2022-11-26T05:22:31.430Z,977.15
2022-11-26T05:23:31.376Z,977.12
2022-11-26T05:24:31.316Z,977.13
2022-11-26T05:25:31.262Z,977.14
2022-11-26T05:26:31.200Z,977.14
2022-11-26T05:27:31.157Z,977.15
2022-11-26T05:28:31.095Z,977.18
2022-11-26T05:29:31.023Z,977.17
2022-11-26T05:30:30.972Z,977.16
2022-11-26T05:31:31.000Z,977.13
2022-11-26T05:32:30.860Z,977.17
2022-11-26T05:33:30.801Z,977.17
2022-11-26T05:34:30.744Z,977.16
2022-11-26T05:35:30.680Z,977.09
2022-11-26T05:36:30.627Z,977.11
2022-11-26T05:37:30.581Z,977.07
2022-11-26T05:38:30.511Z,977.05
2022-11-26T05:39:30.448Z,977.05
2022-11-26T05:40:30.394Z,977.02
2022-11-26T05:41:30.353Z,977.03
2022-11-26T05:42:30.279Z,977.06
2022-11-26T05:43:30.218Z,977.07
2022-11-26T05:44:30.290Z,977.07
2022-11-26T05:45:30.177Z,977.04
2022-11-26T05:46:30.057Z,977.05
2022-11-26T05:47:29.999Z,977.08
2022-11-26T05:48:29.941Z,977.11
2022-11-26T05:49:29.884Z,977.13
2022-11-26T05:50:29.813Z,977.12
2022-11-26T05:51:29.775Z,977.14
2022-11-26T05:52:29.701Z,977.19
2022-11-26T05:53:29.650Z,977.25
2022-11-26T05:54:29.585Z,977.25
2022-11-26T05:55:29.541Z,977.22
2022-11-26T05:56:29.466Z,977.20
2022-11-26T05:57:29.410Z,977.20
2022-11-26T05:58:29.352Z,977.20
2022-11-26T05:59:29.306Z,977.21
2022-11-26T06:00:29.253Z,977.21
2022-11-26T06:01:29.180Z,977.27
2022-11-26T06:02:29.261Z,977.27
2022-11-26T06:03:29.144Z,977.29
2022-11-26T06:04:29.091Z,977.29
2022-11-26T06:05:28.948Z,977.29
2022-11-26T06:06:28.902Z,977.30
2022-11-26T06:07:28.861Z,977.28
2022-11-26T06:08:28.774Z,977.35
2022-11-26T06:09:28.729Z,977.39
2022-11-26T06:10:28.651Z,977.41
2022-11-26T06:11:28.603Z,977.41
2022-11-26T06:12:28.539Z,977.40
2022-11-26T06:13:28.484Z,977.44
2022-11-26T06:14:28.439Z,977.45
2022-11-26T06:15:28.378Z,977.43
2022-11-26T06:16:28.353Z,977.46
2022-11-26T06:17:28.264Z,977.50
2022-11-26T06:18:28.194Z,977.52
2022-11-26T06:19:28.150Z,977.55
2022-11-26T06:20:28.089Z,977.57
2022-11-26T06:21:28.012Z,977.56
2022-11-26T06:22:27.959Z,977.59
2022-11-26T06:23:27.895Z,977.57
2022-11-26T06:24:27.856Z,977.58
2022-11-26T06:25:27.779Z,977.62
2022-11-26T06:26:27.722Z,977.61
2022-11-26T06:27:27.670Z,977.64
2022-11-26T06:28:27.607Z,977.63
2022-11-26T06:29:28.337Z,977.66
2022-11-26T06:30:27.498Z,977.65
2022-11-26T06:31:27.527Z,977.65
2022-11-26T06:32:27.372Z,977.65
2022-11-26T06:33:27.333Z,977.63
2022-11-26T06:34:27.275Z,977.65
2022-11-26T06:35:27.207Z,977.68
2022-11-26T06:36:27.142Z,977.69
2022-11-26T06:37:27.082Z,977.74
2022-11-26T06:38:27.029Z,977.78
2022-11-26T06:39:26.986Z,977.82
2022-11-26T06:40:26.909Z,977.80
2022-11-26T06:41:26.869Z,977.83
2022-11-26T06:42:26.787Z,977.86
2022-11-26T06:43:26.737Z,977.89
2022-11-26T06:44:26.676Z,977.86
2022-11-26T06:45:26.673Z,977.86
2022-11-26T06:46:26.568Z,977.88
2022-11-26T06:47:26.632Z,977.92
2022-11-26T06:48:26.450Z,977.95
2022-11-26T06:49:26.399Z,977.97
2022-11-26T06:50:26.331Z,977.97
2022-11-26T06:51:26.270Z,978.02
2022-11-26T06:52:26.314Z,978.04
2022-11-26T06:53:26.151Z,978.09
2022-11-26T06:54:26.110Z,978.14
2022-11-26T06:55:26.036Z,978.13
2022-11-26T06:56:26.058Z,978.14
2022-11-26T06:57:25.929Z,978.19
2022-11-26T06:58:25.859Z,978.14
2022-11-26T06:59:25.815Z,978.19
2022-11-26T07:00:25.741Z,978.20
2022-11-26T07:01:25.752Z,978.23
2022-11-26T07:02:25.668Z,978.22
2022-11-26T07:03:28.119Z,978.23
2022-11-26T07:04:25.516Z,978.23
2022-11-26T07:05:25.467Z,978.27
2022-11-26T07:06:25.482Z,978.26
2022-11-26T07:07:25.369Z,978.25
2022-11-26T07:08:25.271Z,978.26
2022-11-26T07:09:25.231Z,978.30
2022-11-26T07:10:25.160Z,978.31
2022-11-26T07:11:25.121Z,978.32
2022-11-26T07:12:25.041Z,978.32
2022-11-26T07:13:24.983Z,978.31
2022-11-26T07:14:24.923Z,978.31
2022-11-26T07:15:24.867Z,978.34
2022-11-26T07:16:24.885Z,978.29
2022-11-26T07:17:24.750Z,978.29
2022-11-26T07:18:24.694Z,978.28
2022-11-26T07:19:24.628Z,978.31
2022-11-26T07:20:24.573Z,978.31
2022-11-26T07:21:24.524Z,978.32
2022-11-26T07:22:24.473Z,978.33
2022-11-26T07:23:24.398Z,978.31
2022-11-26T07:24:24.340Z,978.37
2022-11-26T07:25:24.279Z,978.44
2022-11-26T07:26:24.234Z,978.42
2022-11-26T07:27:24.179Z,978.46
2022-11-26T07:28:24.103Z,978.49
2022-11-26T07:29:24.063Z,978.52
2022-11-26T07:30:23.986Z,978.55
2022-11-26T07:31:23.996Z,978.56
2022-11-26T07:32:23.869Z,978.57
2022-11-26T07:33:23.818Z,978.61
2022-11-26T07:34:23.771Z,978.61
2022-11-26T07:35:23.695Z,978.65
2022-11-26T07:36:23.656Z,978.67
2022-11-26T07:37:23.579Z,978.64
2022-11-26T07:38:23.526Z,978.65
2022-11-26T07:39:23.484Z,978.67
2022-11-26T07:40:23.431Z,978.68
2022-11-26T07:41:23.363Z,978.69
2022-11-26T07:42:23.297Z,978.73
2022-11-26T07:43:23.236Z,978.71
2022-11-26T07:44:23.192Z,978.75
2022-11-26T07:45:23.123Z,978.75
2022-11-26T07:46:23.178Z,978.76
2022-11-26T07:47:23.037Z,978.77
2022-11-26T07:48:22.953Z,978.80
2022-11-26T07:49:22.905Z,978.79
2022-11-26T07:50:22.829Z,978.84
2022-11-26T07:51:22.769Z,978.86
2022-11-26T07:52:22.710Z,978.87
2022-11-26T07:53:22.649Z,978.89
2022-11-26T07:54:22.614Z,978.86
2022-11-26T07:55:22.536Z,978.90
2022-11-26T07:56:22.484Z,978.88
2022-11-26T07:57:22.419Z,978.89
2022-11-26T07:58:22.367Z,978.92
2022-11-26T07:59:22.317Z,978.96
2022-11-26T08:00:22.249Z,978.97
2022-11-26T08:01:22.313Z,979.01
2022-11-26T08:02:22.162Z,979.05
2022-11-26T08:03:22.075Z,979.04
2022-11-26T08:04:22.028Z,979.03
2022-11-26T08:05:21.955Z,979.05
2022-11-26T08:06:21.915Z,979.05
2022-11-26T08:07:27.565Z,979.05
2022-11-26T08:08:21.787Z,979.04
2022-11-26T08:09:21.722Z,979.00
2022-11-26T08:10:21.666Z,979.07
2022-11-26T08:11:21.632Z,979.05
2022-11-26T08:12:21.570Z,979.06
2022-11-26T08:13:21.494Z,979.05
2022-11-26T08:14:21.430Z,979.08
2022-11-26T08:15:21.377Z,979.12
2022-11-26T08:16:21.371Z,979.10
2022-11-26T08:17:21.297Z,979.08
2022-11-26T08:18:21.224Z,979.07
2022-11-26T08:19:21.151Z,979.14
2022-11-26T08:20:24.537Z,979.11
2022-11-26T08:21:21.033Z,979.13
2022-11-26T08:22:20.988Z,979.16
2022-11-26T08:23:20.917Z,979.16
2022-11-26T08:24:20.877Z,979.15
2022-11-26T08:25:20.799Z,979.15
2022-11-26T08:26:25.261Z,979.14
2022-11-26T08:27:20.716Z,979.16
2022-11-26T08:28:20.628Z,979.15
2022-11-26T08:29:20.571Z,979.18
2022-11-26T08:30:20.528Z,979.19
2022-11-26T08:31:20.472Z,979.21
2022-11-26T08:32:20.398Z,979.23
2022-11-26T08:33:20.489Z,979.23
2022-11-26T08:34:20.297Z,979.24
2022-11-26T08:35:20.217Z,979.23
2022-11-26T08:36:20.214Z,979.22
2022-11-26T08:37:20.116Z,979.24
2022-11-26T08:38:20.051Z,979.24
2022-11-26T08:39:19.990Z,979.22
2022-11-26T08:40:19.964Z,979.21
2022-11-26T08:41:19.892Z,979.25
2022-11-26T08:42:19.832Z,979.26
2022-11-26T08:43:19.774Z,979.26
2022-11-26T08:44:19.713Z,979.28
2022-11-26T08:45:19.642Z,979.23
2022-11-26T08:46:19.667Z,979.27
2022-11-26T08:47:19.525Z,979.27
2022-11-26T08:48:19.493Z,979.27
2022-11-26T08:49:19.416Z,979.25
2022-11-26T08:50:19.356Z,979.26
2022-11-26T08:51:19.332Z,979.28
2022-11-26T08:52:19.245Z,979.24
2022-11-26T08:53:19.196Z,979.31
2022-11-26T08:54:19.124Z,979.30
2022-11-26T08:55:23.738Z,979.32
2022-11-26T08:56:19.012Z,979.32
2022-11-26T08:57:18.983Z,979.37
2022-11-26T08:58:18.896Z,979.40
2022-11-26T08:59:18.839Z,979.43
2022-11-26T09:00:18.782Z,979.46
2022-11-26T09:01:18.834Z,979.48
2022-11-26T09:02:19.143Z,979.51
2022-11-26T09:03:18.667Z,979.48
2022-11-26T09:04:18.596Z,979.50
2022-11-26T09:05:18.493Z,979.47
2022-11-26T09:06:18.453Z,979.46
2022-11-26T09:07:18.430Z,979.44
2022-11-26T09:08:18.337Z,979.39
2022-11-26T09:09:18.263Z,979.39
2022-11-26T09:10:18.209Z,979.39
2022-11-26T09:11:18.182Z,979.41
2022-11-26T09:12:18.118Z,979.44
2022-11-26T09:13:21.009Z,979.42
2022-11-26T09:14:17.999Z,979.44
2022-11-26T09:15:18.049Z,979.42
2022-11-26T09:16:17.910Z,979.42
2022-11-26T09:17:17.818Z,979.42
2022-11-26T09:18:17.767Z,979.42
2022-11-26T09:19:17.697Z,979.42
2022-11-26T09:20:17.655Z,979.47
2022-11-26T09:21:17.597Z,979.45
2022-11-26T09:22:17.535Z,979.45
2022-11-26T09:23:17.467Z,979.47
2022-11-26T09:24:17.466Z,979.46
2022-11-26T09:25:17.351Z,979.54
2022-11-26T09:26:17.293Z,979.51
2022-11-26T09:27:17.255Z,979.54
2022-11-26T09:28:17.176Z,979.54
2022-11-26T09:29:17.144Z,979.51
2022-11-26T09:30:17.065Z,979.49
2022-11-26T09:31:17.026Z,979.48
2022-11-26T09:32:27.077Z,979.47
2022-11-26T09:33:16.898Z,979.49
2022-11-26T09:34:16.855Z,979.54
2022-11-26T09:35:16.789Z,979.51
2022-11-26T09:36:16.735Z,979.51
2022-11-26T09:37:16.668Z,979.49
2022-11-26T09:38:16.643Z,979.50
2022-11-26T09:39:16.559Z,979.51
2022-11-26T09:40:16.494Z,979.49
2022-11-26T09:41:16.441Z,979.51
2022-11-26T09:42:16.380Z,979.48
2022-11-26T09:43:16.329Z,979.52
2022-11-26T09:44:16.288Z,979.51
2022-11-26T09:45:16.210Z,979.50
2022-11-26T09:46:16.212Z,979.52
2022-11-26T09:47:16.105Z,979.50
2022-11-26T09:48:16.054Z,979.51
2022-11-26T09:49:16.007Z,979.52
2022-11-26T09:50:15.960Z,979.55
2022-11-26T09:51:15.861Z,979.56
2022-11-26T09:52:15.821Z,979.51
2022-11-26T09:53:15.749Z,979.52
2022-11-26T09:54:15.714Z,979.51
2022-11-26T09:55:15.660Z,979.51
2022-11-26T09:56:15.590Z,979.50
2022-11-26T09:57:15.516Z,979.48
2022-11-26T09:58:15.468Z,979.47
2022-11-26T09:59:15.419Z,979.55
2022-11-26T10:00:15.347Z,979.53
2022-11-26T10:01:15.354Z,979.53
2022-11-26T10:02:15.302Z,979.56
2022-11-26T10:03:15.194Z,979.55
2022-11-26T10:04:15.128Z,979.55
2022-11-26T10:05:21.004Z,979.53
2022-11-26T10:06:15.010Z,979.54
2022-11-26T10:07:15.016Z,979.55
2022-11-26T10:08:14.894Z,979.53
2022-11-26T10:09:14.833Z,979.53
2022-11-26T10:10:14.791Z,979.51
2022-11-26T10:11:14.721Z,979.50
2022-11-26T10:12:25.033Z,979.47
2022-11-26T10:13:19.505Z,979.46
2022-11-26T10:14:14.563Z,979.46
2022-11-26T10:15:14.504Z,979.47
2022-11-26T10:16:14.513Z,979.46
2022-11-26T10:17:14.375Z,979.48
2022-11-26T10:18:14.328Z,979.47
2022-11-26T10:19:14.264Z,979.51
2022-11-26T10:20:14.220Z,979.52
2022-11-26T10:21:14.168Z,979.51
2022-11-26T10:22:14.094Z,979.51
2022-11-26T10:23:14.028Z,979.53
2022-11-26T10:24:13.976Z,979.48
2022-11-26T10:25:13.961Z,979.48
2022-11-26T10:26:13.878Z,979.51
2022-11-26T10:27:13.806Z,979.50
2022-11-26T10:28:13.758Z,979.50
2022-11-26T10:29:13.697Z,979.51
2022-11-26T10:30:13.751Z,979.54
2022-11-26T10:31:13.644Z,979.52
2022-11-26T10:32:13.519Z,979.53
2022-11-26T10:33:13.468Z,979.52
2022-11-26T10:34:13.408Z,979.53
2022-11-26T10:35:13.359Z,979.50
2022-11-26T10:36:13.295Z,979.52
2022-11-26T10:37:13.236Z,979.53
2022-11-26T10:38:13.189Z,979.56
2022-11-26T10:39:13.122Z,979.59
2022-11-26T10:40:13.074Z,979.57
2022-11-26T10:41:13.004Z,979.56
2022-11-26T10:42:12.968Z,979.60
2022-11-26T10:43:12.891Z,979.58
2022-11-26T10:44:12.839Z,979.61
2022-11-26T10:45:12.789Z,979.59
2022-11-26T10:46:12.835Z,979.56
2022-11-26T10:47:12.682Z,979.54
2022-11-26T10:48:12.622Z,979.58
2022-11-26T10:49:12.545Z,979.61
2022-11-26T10:50:39.514Z,979.60
2022-11-26T10:51:12.451Z,979.55
2022-11-26T10:52:12.385Z,979.58
2022-11-26T10:53:12.321Z,979.56
2022-11-26T10:54:12.274Z,979.55
2022-11-26T10:55:12.213Z,979.51
2022-11-26T10:56:12.168Z,979.54
2022-11-26T10:57:12.098Z,979.58
2022-11-26T10:58:12.037Z,979.56
2022-11-26T10:59:11.987Z,979.53
2022-11-26T11:00:11.923Z,979.53
2022-11-26T11:01:11.906Z,979.53
2022-11-26T11:02:11.861Z,979.48
2022-11-26T11:03:11.751Z,979.49
2022-11-26T11:04:11.699Z,979.48
2022-11-26T11:05:11.643Z,979.50
2022-11-26T11:06:11.605Z,979.49
2022-11-26T11:07:12.069Z,979.54
2022-11-26T11:08:11.469Z,979.55
2022-11-26T11:09:11.430Z,979.57
2022-11-26T11:10:11.353Z,979.59
2022-11-26T11:11:11.316Z,979.56
2022-11-26T11:12:11.256Z,979.56
2022-11-26T11:13:11.189Z,979.57
2022-11-26T11:14:11.122Z,979.61
2022-11-26T11:15:11.082Z,979.65
2022-11-26T11:16:11.051Z,979.63
2022-11-26T11:17:10.959Z,979.65
2022-11-26T11:18:10.894Z,979.59
2022-11-26T11:19:10.839Z,979.62
2022-11-26T11:20:10.802Z,979.60
2022-11-26T11:21:10.736Z,979.60
2022-11-26T11:22:10.688Z,979.57
2022-11-26T11:23:10.624Z,979.59
2022-11-26T11:24:10.560Z,979.57
2022-11-26T11:25:10.526Z,979.56
2022-11-26T11:26:10.443Z,979.59
2022-11-26T11:27:10.404Z,979.56
2022-11-26T11:28:12.388Z,979.61
2022-11-26T11:29:10.288Z,979.58
2022-11-26T11:30:10.213Z,979.61
2022-11-26T11:31:10.181Z,979.62
2022-11-26T11:32:10.106Z,979.58
2022-11-26T11:33:10.048Z,979.57
2022-11-26T11:34:09.991Z,979.54
2022-11-26T11:35:09.951Z,979.52
2022-11-26T11:36:09.891Z,979.56
2022-11-26T11:37:14.412Z,979.55
2022-11-26T11:38:09.763Z,979.58
2022-11-26T11:39:09.706Z,979.57
2022-11-26T11:40:13.034Z,979.60
2022-11-26T11:41:09.602Z,979.60
2022-11-26T11:42:09.544Z,979.52
2022-11-26T11:43:09.473Z,979.53
2022-11-26T11:44:09.433Z,979.53
2022-11-26T11:45:09.361Z,979.49
2022-11-26T11:46:09.351Z,979.49
2022-11-26T11:47:09.262Z,979.47
2022-11-26T11:48:09.191Z,979.47
2022-11-26T11:49:09.140Z,979.46
2022-11-26T11:50:09.080Z,979.44
2022-11-26T11:51:09.034Z,979.49
2022-11-26T11:52:08.991Z,979.45
2022-11-26T11:53:08.909Z,979.47
2022-11-26T11:54:08.858Z,979.45
2022-11-26T11:55:08.793Z,979.43
2022-11-26T11:56:08.751Z,979.44
2022-11-26T11:57:08.679Z,979.46
2022-11-26T11:58:08.625Z,979.44
2022-11-26T11:59:08.574Z,979.43
2022-11-26T12:00:08.523Z,979.46
2022-11-26T12:01:08.456Z,979.44
2022-11-26T12:02:08.488Z,979.46
2022-11-26T12:03:10.473Z,979.43
2022-11-26T12:04:09.294Z,979.41
2022-11-26T12:05:08.297Z,979.40
2022-11-26T12:06:08.174Z,979.36
2022-11-26T12:07:08.251Z,979.35
2022-11-26T12:08:08.062Z,979.33
2022-11-26T12:09:08.050Z,979.31
2022-11-26T12:10:07.952Z,979.32
2022-11-26T12:11:07.887Z,979.33
2022-11-26T12:12:07.848Z,979.31
2022-11-26T12:13:07.777Z,979.31
2022-11-26T12:14:07.718Z,979.30
2022-11-26T12:15:07.663Z,979.30
2022-11-26T12:16:07.697Z,979.32
2022-11-26T12:17:07.622Z,979.29
2022-11-26T12:18:07.506Z,979.28
2022-11-26T12:19:07.454Z,979.28
2022-11-26T12:20:07.376Z,979.25
2022-11-26T12:21:07.319Z,979.28
2022-11-26T12:22:07.258Z,979.32
2022-11-26T12:23:10.247Z,979.28
2022-11-26T12:24:07.156Z,979.27
2022-11-26T12:25:07.100Z,979.33
2022-11-26T12:26:07.041Z,979.30
2022-11-26T12:27:06.994Z,979.30
2022-11-26T12:28:06.916Z,979.31